Time;durP1;ratioP1;P1;durP2;ratioP2;P2;SDS_P1;SDS_P2;PMS_P1;PMS_P2;Temp;Humidity;BMP_temperature;BMP_pressure;BME280_temperature;BME280_humidity;BME280_pressure;Samples;Min_cycle;Max_cycle;Signal;HPM_P1;HPM_P2
2022/07/22 00:02:05;;;;;;;8.80;7.90;;;;;;;23.85;54.76;97819.03;5101783;28;20223;-68
2022/07/22 00:04:31;;;;;;;13.77;7.87;;;;;;;23.74;54.88;97818.75;5096396;28;20249;-70
2022/07/22 00:06:56;;;;;;;11.43;7.20;;;;;;;23.66;55.37;97829.75;5101331;27;20192;-69
2022/07/22 00:09:22;;;;;;;13.17;7.80;;;;;;;23.64;55.53;97823.78;5108421;28;20184;-69
2022/07/22 00:11:47;;;;;;;14.33;8.43;;;;;;;23.58;55.68;97814.78;5102885;28;20184;-70
2022/07/22 00:14:13;;;;;;;8.57;7.40;;;;;;;23.61;55.62;97816.19;5109115;28;20236;-68
2022/07/22 00:16:39;;;;;;;7.77;6.80;;;;;;;23.67;55.47;97818.00;5103298;28;20212;-69
2022/07/22 00:19:04;;;;;;;7.83;7.00;;;;;;;23.66;55.30;97826.22;5102474;28;20700;-70
2022/07/22 00:21:30;;;;;;;7.30;6.57;;;;;;;23.64;55.19;97823.78;5066650;28;20632;-69
2022/07/22 00:23:55;;;;;;;8.33;7.43;;;;;;;23.64;55.49;97818.44;5100887;28;20212;-69
2022/07/22 00:26:20;;;;;;;7.03;6.33;;;;;;;23.57;55.58;97823.03;5107486;28;20185;-73
2022/07/22 00:28:46;;;;;;;8.10;7.30;;;;;;;23.58;55.47;97824.66;5102647;28;20205;-71
2022/07/22 00:31:11;;;;;;;8.40;7.07;;;;;;;23.45;55.84;97826.44;5105706;28;20663;-69
2022/07/22 00:33:37;;;;;;;15.57;7.90;;;;;;;23.46;56.18;97816.56;5100485;28;20201;-69
2022/07/22 00:36:03;;;;;;;9.63;7.67;;;;;;;23.42;56.18;97821.53;5105857;28;20185;-71
2022/07/22 00:38:28;;;;;;;10.20;7.50;;;;;;;23.40;56.16;97822.78;5100843;28;20212;-69
2022/07/22 00:40:54;;;;;;;15.17;7.43;;;;;;;23.42;56.25;97815.34;5111949;28;20183;-69
2022/07/22 00:43:19;;;;;;;9.90;7.70;;;;;;;23.43;56.17;97817.00;5105179;28;20185;-70
2022/07/22 00:45:44;;;;;;;8.80;6.50;;;;;;;23.38;56.33;97820.34;5092604;28;20177;-69
2022/07/22 00:48:10;;;;;;;9.03;7.10;;;;;;;23.40;56.02;97812.91;5109337;28;20675;-69
2022/07/22 00:50:36;;;;;;;12.40;6.70;;;;;;;23.41;56.08;97813.72;5098419;28;20180;-69
2022/07/22 00:53:01;;;;;;;9.20;7.10;;;;;;;23.27;56.46;97813.03;5087667;28;20778;-70
2022/07/22 00:55:27;;;;;;;7.77;7.07;;;;;;;23.23;56.36;97801.13;5102190;28;20197;-69
2022/07/22 00:57:53;;;;;;;10.67;6.87;;;;;;;23.20;56.46;97798.91;5105621;28;20213;-68
2022/07/22 01:00:20;;;;;;;7.67;6.80;;;;;;;23.18;56.45;97804.44;5100697;28;20516;-69
2022/07/22 01:02:46;;;;;;;8.33;7.40;;;;;;;23.20;56.32;97804.25;5105968;27;20180;-69
2022/07/22 01:05:12;;;;;;;10.00;7.30;;;;;;;23.22;56.29;97800.34;5105457;27;20458;-69
2022/07/22 01:07:38;;;;;;;9.60;6.77;;;;;;;23.17;56.49;97797.47;5081374;28;20201;-68
2022/07/22 01:10:05;;;;;;;9.73;7.03;;;;;;;23.20;56.23;97801.56;5104473;28;20231;-68
2022/07/22 01:12:31;;;;;;;9.50;7.00;;;;;;;23.06;56.58;97798.97;5103783;28;20181;-68
2022/07/22 01:14:56;;;;;;;7.53;6.80;;;;;;;23.05;56.88;97805.38;5105730;28;20457;-68
2022/07/22 01:17:22;;;;;;;15.10;7.57;;;;;;;22.94;57.18;97800.72;5096764;28;20213;-68
2022/07/22 01:19:47;;;;;;;11.93;7.30;;;;;;;22.90;57.42;97786.97;5099466;28;20188;-69
2022/07/22 01:22:13;;;;;;;7.70;6.50;;;;;;;22.89;57.19;97796.03;5099902;28;20227;-69
2022/07/22 01:24:38;;;;;;;8.50;7.57;;;;;;;22.75;57.73;97792.66;5103293;28;20199;-68
2022/07/22 01:27:04;;;;;;;10.10;7.53;;;;;;;22.74;57.87;97798.22;5097872;28;20209;-73
2022/07/22 01:29:29;;;;;;;7.03;6.33;;;;;;;22.77;57.80;97793.25;5111667;27;20189;-68
2022/07/22 01:31:55;;;;;;;12.07;7.13;;;;;;;22.78;57.71;97797.56;5092099;28;20197;-69
2022/07/22 01:34:20;;;;;;;8.00;6.90;;;;;;;22.79;57.37;97793.88;5102484;28;20210;-69
2022/07/22 01:36:46;;;;;;;14.33;6.80;;;;;;;22.76;57.56;97799.63;5105499;28;20262;-69
2022/07/22 01:39:13;;;;;;;7.60;6.70;;;;;;;22.82;57.13;97796.09;5104066;28;20260;-69
2022/07/22 01:41:39;;;;;;;7.40;6.70;;;;;;;22.80;57.02;97803.53;5107413;28;20782;-68
2022/07/22 01:44:05;;;;;;;8.20;7.10;;;;;;;22.79;57.24;97799.22;5102076;28;20454;-69
2022/07/22 01:46:31;;;;;;;7.50;6.70;;;;;;;22.74;57.27;97793.69;5107098;28;20228;-69
2022/07/22 01:48:56;;;;;;;13.43;7.40;;;;;;;22.70;57.50;97795.97;5100721;28;20336;-70
2022/07/22 01:51:22;;;;;;;7.13;6.43;;;;;;;22.65;57.78;97795.78;5104712;28;20815;-69
2022/07/22 01:53:48;;;;;;;9.20;6.97;;;;;;;22.65;57.61;97801.13;5101097;28;20259;-69
2022/07/22 01:56:14;;;;;;;9.90;6.40;;;;;;;22.66;57.42;97797.44;5106586;28;20181;-69
2022/07/22 01:58:39;;;;;;;7.87;7.17;;;;;;;22.68;57.56;97791.91;5104896;28;20283;-69
2022/07/22 02:01:05;;;;;;;7.47;6.80;;;;;;;22.76;57.49;97796.13;5100164;28;20271;-69
2022/07/22 02:03:31;;;;;;;7.00;6.30;;;;;;;22.75;57.35;97795.31;5104207;28;20254;-68
2022/07/22 02:05:56;;;;;;;11.17;7.13;;;;;;;22.74;57.31;97796.34;5097447;28;20209;-70
2022/07/22 02:08:22;;;;;;;9.40;7.60;;;;;;;22.66;57.54;97800.09;5102733;28;20182;-68
2022/07/22 02:10:47;;;;;;;14.10;7.50;;;;;;;22.61;57.63;97793.78;5100011;28;20190;-69
2022/07/22 02:13:13;;;;;;;7.70;7.10;;;;;;;22.56;58.02;97791.75;5106271;28;20219;-70
2022/07/22 02:15:38;;;;;;;7.40;6.73;;;;;;;22.59;57.53;97793.16;5106116;28;20212;-68
2022/07/22 02:18:15;;;;;;;7.63;6.83;;;;;;;22.61;57.71;97793.78;5092817;28;20209;-72
2022/07/22 02:20:41;;;;;;;9.50;6.80;;;;;;;22.59;57.46;97790.50;5104255;28;20255;-69
2022/07/22 02:23:07;;;;;;;7.60;6.83;;;;;;;22.58;57.67;97789.69;5100218;28;20434;-69
2022/07/22 02:25:34;;;;;;;10.23;7.00;;;;;;;22.53;57.81;97787.66;5106403;28;20442;-69
2022/07/22 02:27:59;;;;;;;8.23;6.83;;;;;;;22.56;57.80;97791.75;5097351;28;20427;-68
2022/07/22 02:30:25;;;;;;;11.60;7.20;;;;;;;22.54;57.76;97791.97;5107590;28;20187;-69
2022/07/22 02:32:50;;;;;;;10.40;7.10;;;;;;;22.43;57.82;97792.63;5099356;28;20284;-69
2022/07/22 02:35:16;;;;;;;7.70;6.53;;;;;;;22.38;57.86;97787.91;5107756;28;20701;-70
2022/07/22 02:37:41;;;;;;;8.60;7.23;;;;;;;22.29;58.31;97786.53;5110368;28;20204;-69
2022/07/22 02:40:08;;;;;;;8.17;6.73;;;;;;;22.22;58.46;97783.09;5094508;28;20243;-69
2022/07/22 02:42:34;;;;;;;12.27;6.97;;;;;;;22.21;58.62;97779.59;5110000;28;20184;-69
2022/07/22 02:44:59;;;;;;;16.23;7.97;;;;;;;22.17;58.63;97775.72;5106215;28;20559;-69
2022/07/22 02:47:24;;;;;;;10.10;7.40;;;;;;;22.11;58.66;97779.25;5108023;28;20187;-69
2022/07/22 02:49:50;;;;;;;7.97;7.10;;;;;;;22.01;59.05;97774.34;5105197;28;20562;-69
2022/07/22 02:52:16;;;;;;;7.63;6.83;;;;;;;22.07;59.00;97772.69;5091850;28;20212;-69
2022/07/22 02:54:41;;;;;;;7.77;7.00;;;;;;;22.11;58.49;97779.25;5103879;28;20688;-71
2022/07/22 02:57:07;;;;;;;8.10;7.30;;;;;;;22.04;58.75;97779.28;5106429;28;20192;-69
2022/07/22 02:59:32;;;;;;;9.47;7.63;;;;;;;22.06;58.79;97787.06;5105146;28;20185;-71
2022/07/22 03:01:58;;;;;;;11.33;7.20;;;;;;;22.05;58.77;97785.44;5106377;28;20186;-70
2022/07/22 03:04:23;;;;;;;8.80;7.17;;;;;;;22.06;58.59;97779.03;5087424;28;20252;-69
2022/07/22 03:06:49;;;;;;;7.17;6.50;;;;;;;21.96;58.78;97787.53;5104051;28;20182;-70
2022/07/22 03:09:14;;;;;;;13.80;7.50;;;;;;;21.78;59.49;97781.00;5101727;28;20178;-71
2022/07/22 03:11:40;;;;;;;11.90;7.70;;;;;;;21.85;59.29;97785.53;5108979;28;20200;-68
2022/07/22 03:14:05;;;;;;;7.40;6.80;;;;;;;21.88;59.05;97780.56;5102803;28;20224;-69
2022/07/22 03:16:31;;;;;;;9.03;8.00;;;;;;;21.88;59.08;97779.75;5108899;28;20184;-70
2022/07/22 03:18:56;;;;;;;8.23;7.10;;;;;;;21.86;59.17;97779.16;5089158;28;20209;-68
2022/07/22 03:21:22;;;;;;;7.70;7.00;;;;;;;21.91;58.88;97785.50;5106980;27;20212;-71
2022/07/22 03:23:47;;;;;;;8.80;7.13;;;;;;;21.96;59.07;97781.34;5111565;27;20266;-69
2022/07/22 03:26:12;;;;;;;7.53;6.93;;;;;;;21.92;58.75;97792.47;5099588;28;20185;-69
2022/07/22 03:28:38;;;;;;;9.93;7.23;;;;;;;21.89;58.91;97792.88;5106741;28;20181;-69
2022/07/22 03:31:04;;;;;;;7.13;6.33;;;;;;;21.64;59.67;97787.41;5098132;28;20186;-70
2022/07/22 03:33:29;;;;;;;12.23;8.40;;;;;;;21.72;59.51;97786.38;5106614;28;20621;-68
2022/07/22 03:35:54;;;;;;;8.53;6.70;;;;;;;21.79;58.88;97797.84;5090123;28;20189;-69
2022/07/22 03:38:20;;;;;;;10.00;9.00;;;;;;;21.80;59.07;97794.13;5094539;28;20233;-73
2022/07/22 03:40:45;;;;;;;7.77;7.00;;;;;;;21.72;59.33;97792.53;5108193;28;20177;-68
2022/07/22 03:43:11;;;;;;;9.60;8.60;;;;;;;21.75;59.03;97793.97;5093796;28;20188;-69
2022/07/22 03:45:36;;;;;;;9.10;8.00;;;;;;;21.74;59.22;97789.66;5111572;28;20219;-69
2022/07/22 03:48:02;;;;;;;8.43;7.60;;;;;;;21.75;59.09;97793.97;5081214;28;20182;-71
2022/07/22 03:50:28;;;;;;;10.40;8.47;;;;;;;21.72;59.24;97795.19;5109282;27;20180;-69
2022/07/22 03:52:53;;;;;;;8.67;7.77;;;;;;;21.70;59.17;97791.91;5107828;28;20832;-68
2022/07/22 03:55:20;;;;;;;12.27;7.70;;;;;;;21.65;59.37;97789.06;5096988;28;20258;-70
2022/07/22 03:57:46;;;;;;;16.07;8.43;;;;;;;21.60;59.80;97789.69;5102625;28;20668;-68
2022/07/22 04:00:11;;;;;;;11.00;7.20;;;;;;;21.62;59.53;97792.97;5098416;28;20473;-69
2022/07/22 04:02:37;;;;;;;8.37;7.67;;;;;;;21.54;59.49;97792.34;5102579;28;20560;-68
2022/07/22 04:05:03;;;;;;;8.73;7.80;;;;;;;21.55;59.65;97786.78;5099553;28;20224;-68
2022/07/22 04:07:28;;;;;;;8.43;7.63;;;;;;;21.48;59.86;97788.66;5105044;28;20544;-68
2022/07/22 04:10:04;;;;;;;11.60;7.70;;;;;;;21.56;59.55;97788.41;5081389;28;20185;-69
2022/07/22 04:12:33;;;;;;;10.20;8.60;;;;;;;21.53;59.63;97790.69;5099307;28;20606;-68
2022/07/22 04:14:58;;;;;;;8.50;7.67;;;;;;;21.51;59.61;97792.75;5102399;28;20447;-67
2022/07/22 04:17:23;;;;;;;12.60;7.53;;;;;;;21.46;59.84;97798.72;5106306;27;20478;-67
2022/07/22 04:19:49;;;;;;;8.97;8.00;;;;;;;21.54;59.93;97795.84;5103886;28;20184;-68
2022/07/22 04:22:14;;;;;;;9.60;7.80;;;;;;;21.57;59.88;97790.06;5101378;28;20193;-70
2022/07/22 04:24:40;;;;;;;9.13;8.10;;;;;;;21.46;60.33;97790.72;5105132;28;20683;-68
2022/07/22 04:27:05;;;;;;;7.93;7.13;;;;;;;21.49;60.06;97783.09;5103440;28;20186;-69
2022/07/22 04:29:31;;;;;;;9.40;8.33;;;;;;;21.60;59.72;97787.03;5095858;28;20201;-69
2022/07/22 04:31:56;;;;;;;10.60;8.20;;;;;;;21.69;59.92;97786.78;5101970;28;20192;-68
2022/07/22 04:34:22;;;;;;;14.67;8.40;;;;;;;21.65;60.06;97782.91;5097887;28;20570;-67
2022/07/22 04:36:47;;;;;;;15.73;8.90;;;;;;;21.69;59.69;97782.28;5098692;28;20178;-71
2022/07/22 04:39:13;;;;;;;12.00;8.10;;;;;;;21.72;59.77;97781.88;5083544;28;20296;-69
2022/07/22 04:41:38;;;;;;;9.60;7.57;;;;;;;21.67;59.91;97781.66;5111995;28;20235;-69
2022/07/22 04:44:04;;;;;;;9.90;8.43;;;;;;;21.73;60.32;97777.34;5112014;28;20691;-71
2022/07/22 04:46:29;;;;;;;10.10;8.13;;;;;;;21.77;60.15;97778.56;5100168;28;20769;-69
2022/07/22 04:48:55;;;;;;;8.20;7.50;;;;;;;21.79;59.86;97782.66;5112007;28;20195;-68
2022/07/22 04:51:20;;;;;;;9.87;8.53;;;;;;;21.74;60.42;97776.31;5111602;28;20220;-70
2022/07/22 04:53:45;;;;;;;10.80;8.13;;;;;;;21.80;60.29;97778.13;5111878;28;20257;-68
2022/07/22 04:56:11;;;;;;;12.57;7.83;;;;;;;21.85;60.27;97781.00;5113826;27;20181;-68
2022/07/22 04:58:36;;;;;;;8.47;7.77;;;;;;;21.90;60.14;97783.84;5120157;27;20208;-71
2022/07/22 05:01:02;;;;;;;11.67;8.47;;;;;;;21.97;59.68;97778.50;5120448;27;20188;-68
2022/07/22 05:03:27;;;;;;;10.47;7.90;;;;;;;21.99;60.02;97776.41;5111490;28;20181;-69
2022/07/22 05:05:53;;;;;;;11.60;8.60;;;;;;;22.06;60.06;97768.38;5111663;28;20532;-70
2022/07/22 05:08:18;;;;;;;11.67;10.03;;;;;;;22.12;60.24;97770.19;5116148;27;20173;-69
2022/07/22 05:10:44;;;;;;;14.27;10.10;;;;;;;22.20;60.20;97777.94;5106298;27;20632;-69
2022/07/22 05:13:12;;;;;;;10.97;9.97;;;;;;;22.31;60.33;97783.66;5110903;28;20181;-70
2022/07/22 05:15:37;;;;;;;11.37;9.20;;;;;;;22.40;59.63;97782.38;5110989;28;20675;-71
2022/07/22 05:18:03;;;;;;;10.30;8.40;;;;;;;22.35;59.50;97780.34;5092631;28;20469;-70
2022/07/22 05:20:29;;;;;;;9.90;8.60;;;;;;;22.44;59.15;97778.25;5111019;28;20808;-69
2022/07/22 05:22:54;;;;;;;9.83;8.80;;;;;;;22.57;59.49;97772.03;5111478;28;20185;-70
2022/07/22 05:25:20;;;;;;;15.20;8.70;;;;;;;22.69;59.29;97775.63;5110637;28;20222;-69
2022/07/22 05:27:52;;;;;;;10.97;8.90;;;;;;;22.72;58.77;97779.72;5111346;28;20184;-69
2022/07/22 05:30:19;;;;;;;15.13;8.43;;;;;;;22.82;58.86;97780.06;5110408;28;20203;-69
2022/07/22 05:32:44;;;;;;;13.73;10.50;;;;;;;22.92;58.77;97776.91;5111145;28;20495;-69
2022/07/22 05:35:10;;;;;;;21.30;19.03;;;;;;;23.02;58.52;97784.44;5103776;28;20542;-68
2022/07/22 05:37:35;;;;;;;15.97;14.30;;;;;;;23.12;58.68;97774.06;5102520;28;20204;-70
2022/07/22 05:40:01;;;;;;;10.90;9.80;;;;;;;23.21;58.26;97771.13;5084139;28;20185;-69
2022/07/22 05:42:26;;;;;;;10.53;8.90;;;;;;;23.24;57.52;97773.38;5106553;27;21692;-70
2022/07/22 05:44:52;;;;;;;12.70;9.00;;;;;;;23.35;57.73;97780.66;5080974;28;20255;-69
2022/07/22 05:47:17;;;;;;;11.13;10.03;;;;;;;23.31;57.22;97774.94;5100295;27;20674;-69
2022/07/22 05:49:43;;;;;;;11.37;9.37;;;;;;;23.31;57.17;97772.25;5100129;28;20280;-69
2022/07/22 05:52:08;;;;;;;12.17;9.97;;;;;;;23.45;57.13;97772.94;5098501;28;20321;-69
2022/07/22 05:54:34;;;;;;;15.77;9.07;;;;;;;23.59;57.18;97768.28;5108059;28;20202;-71
2022/07/22 05:56:59;;;;;;;9.37;8.57;;;;;;;23.69;56.54;97774.97;5091002;28;20188;-71
2022/07/22 05:59:24;;;;;;;10.80;9.50;;;;;;;23.72;55.75;97772.66;5106213;28;20212;-70
2022/07/22 06:01:50;;;;;;;12.07;9.23;;;;;;;23.82;55.45;97769.47;5086093;28;20188;-69
2022/07/22 06:04:15;;;;;;;15.03;9.57;;;;;;;23.96;55.32;97772.81;5109041;28;20299;-68
2022/07/22 06:06:41;;;;;;;10.70;9.60;;;;;;;24.04;55.43;97771.69;5100573;28;20185;-69
2022/07/22 06:09:06;;;;;;;10.30;9.30;;;;;;;24.13;54.80;97767.66;5105706;28;20220;-71
2022/07/22 06:11:32;;;;;;;10.53;9.47;;;;;;;24.23;54.63;97767.13;5089255;28;20185;-70
2022/07/22 06:13:57;;;;;;;9.57;8.63;;;;;;;24.37;54.15;97773.91;5109283;28;20659;-71
2022/07/22 06:16:23;;;;;;;11.70;10.20;;;;;;;24.48;53.66;97772.34;5104640;28;20184;-71
2022/07/22 06:18:48;;;;;;;10.20;9.20;;;;;;;24.56;53.44;97770.38;5103997;28;20209;-69
2022/07/22 06:21:14;;;;;;;11.97;8.70;;;;;;;24.66;53.44;97770.63;5115253;28;20583;-70
2022/07/22 06:23:39;;;;;;;11.63;10.43;;;;;;;24.74;53.29;97773.00;5106758;28;20192;-69
2022/07/22 06:26:05;;;;;;;12.67;9.27;;;;;;;24.85;52.71;97771.38;5097236;28;20188;-72
2022/07/22 06:28:30;;;;;;;11.13;9.40;;;;;;;24.94;52.55;97766.50;5104044;28;20635;-71
2022/07/22 06:30:56;;;;;;;10.70;9.70;;;;;;;25.05;51.91;97770.25;5110813;28;20192;-70
2022/07/22 06:33:21;;;;;;;10.30;9.00;;;;;;;25.16;52.12;97766.75;5101158;28;20687;-70
2022/07/22 06:35:47;;;;;;;10.90;9.30;;;;;;;25.27;51.88;97770.47;5097482;28;20209;-70
2022/07/22 06:38:12;;;;;;;17.43;9.83;;;;;;;25.40;51.47;97769.44;5098410;28;20668;-70
2022/07/22 06:40:38;;;;;;;10.80;8.50;;;;;;;25.52;51.24;97767.56;5097882;28;20177;-70
2022/07/22 06:43:03;;;;;;;9.83;8.83;;;;;;;25.67;51.15;97769.75;5078137;28;20181;-70
2022/07/22 06:45:29;;;;;;;10.63;9.53;;;;;;;25.75;50.37;97766.72;5094933;28;20201;-69
2022/07/22 06:47:55;;;;;;;10.50;9.40;;;;;;;25.88;50.03;97762.94;5100869;28;20185;-69
2022/07/22 06:50:21;;;;;;;10.10;9.20;;;;;;;26.01;49.81;97763.72;5100159;27;20181;-70
2022/07/22 06:52:47;;;;;;;12.83;10.87;;;;;;;26.14;49.37;97768.03;5102820;27;20189;-69
2022/07/22 06:55:13;;;;;;;10.20;9.07;;;;;;;26.25;48.94;97780.59;5097521;28;20719;-69
2022/07/22 06:57:38;;;;;;;11.67;10.13;;;;;;;26.32;48.54;97770.50;5099066;28;20546;-69
2022/07/22 07:00:07;;;;;;;11.07;9.50;;;;;;;26.42;48.56;97769.06;5096805;28;20201;-72
2022/07/22 07:02:32;;;;;;;11.77;10.27;;;;;;;26.56;48.35;97767.69;5083113;28;20716;-69
2022/07/22 07:04:58;;;;;;;13.10;10.33;;;;;;;26.67;47.85;97772.19;5079552;28;20459;-70
2022/07/22 07:07:23;;;;;;;9.70;8.70;;;;;;;26.77;47.31;97763.50;5100881;28;20193;-70
2022/07/22 07:09:49;;;;;;;9.87;8.83;;;;;;;26.89;47.36;97768.00;5105218;28;20181;-69
2022/07/22 07:12:14;;;;;;;12.47;9.00;;;;;;;27.01;47.15;97763.34;5102909;28;20191;-72
2022/07/22 07:14:40;;;;;;;10.07;9.07;;;;;;;27.11;46.69;97757.31;5086051;28;20725;-69
2022/07/22 07:17:05;;;;;;;11.47;9.33;;;;;;;27.24;47.01;97753.47;5103496;28;20193;-70
2022/07/22 07:19:31;;;;;;;17.30;15.50;;;;;;;27.32;46.88;97747.66;5097147;28;20182;-70
2022/07/22 07:21:56;;;;;;;13.43;10.30;;;;;;;27.47;46.36;97746.28;5096927;28;20189;-70
2022/07/22 07:24:22;;;;;;;10.70;9.20;;;;;;;27.57;46.10;97741.81;5100872;28;20586;-69
2022/07/22 07:26:48;;;;;;;12.23;9.07;;;;;;;27.70;46.07;97743.34;5100761;28;20212;-70
2022/07/22 07:29:13;;;;;;;9.43;8.47;;;;;;;27.74;45.67;97731.00;5095233;28;20579;-70
2022/07/22 07:31:39;;;;;;;9.97;8.97;;;;;;;27.83;45.28;97727.88;5093900;28;20189;-70
2022/07/22 07:34:04;;;;;;;10.93;9.53;;;;;;;27.93;44.96;97727.97;5097378;28;20732;-70
2022/07/22 07:36:30;;;;;;;14.67;9.20;;;;;;;28.01;44.75;97730.22;5109347;28;20182;-70
2022/07/22 07:38:55;;;;;;;11.50;10.10;;;;;;;28.15;44.47;97721.78;5099301;28;20210;-70
2022/07/22 07:41:21;;;;;;;10.43;8.30;;;;;;;28.28;44.52;97723.25;5111857;28;20183;-69
2022/07/22 07:43:46;;;;;;;12.77;11.47;;;;;;;28.41;44.30;97722.00;5091168;28;20231;-70
2022/07/22 07:46:12;;;;;;;12.40;8.20;;;;;;;28.49;43.91;97718.84;5112859;28;20230;-69
2022/07/22 07:48:38;;;;;;;12.43;10.73;;;;;;;28.62;44.29;97718.41;5107422;28;20577;-69
2022/07/22 07:51:04;;;;;;;13.37;8.30;;;;;;;28.73;43.61;97713.94;5112247;28;20185;-69
2022/07/22 07:53:30;;;;;;;11.77;8.67;;;;;;;28.84;43.06;97717.56;5105123;27;20205;-69
2022/07/22 07:55:56;;;;;;;10.10;8.27;;;;;;;28.90;42.73;97718.41;5114053;27;20500;-69
2022/07/22 07:58:22;;;;;;;8.50;7.73;;;;;;;29.03;42.78;97726.03;5089264;28;20212;-70
2022/07/22 08:00:47;;;;;;;9.23;8.33;;;;;;;29.13;42.05;97714.47;5113302;28;20188;-71
2022/07/22 08:03:13;;;;;;;11.20;7.77;;;;;;;29.30;42.97;97721.59;5112904;28;20181;-69
2022/07/22 08:05:38;;;;;;;10.33;7.97;;;;;;;29.43;42.38;97721.16;5094867;28;20211;-70
2022/07/22 08:08:05;;;;;;;9.87;7.93;;;;;;;29.55;42.59;97720.94;5095086;28;20265;-71
2022/07/22 08:10:31;;;;;;;12.33;8.53;;;;;;;29.69;41.28;97721.25;5099361;28;20256;-71
2022/07/22 08:12:57;;;;;;;15.27;8.87;;;;;;;29.76;41.23;97711.00;5105642;28;20434;-71
2022/07/22 08:15:24;;;;;;;9.70;8.50;;;;;;;29.92;40.96;97721.88;5106891;28;20698;-69
2022/07/22 08:17:49;;;;;;;10.30;9.23;;;;;;;29.97;40.83;97711.91;5103785;28;20459;-70
2022/07/22 08:20:15;;;;;;;14.13;9.20;;;;;;;30.08;40.14;97710.06;5109246;27;20873;-69
2022/07/22 08:22:40;;;;;;;11.77;8.37;;;;;;;30.12;40.25;97713.81;5101876;28;20169;-70
2022/07/22 08:25:06;;;;;;;10.17;9.17;;;;;;;30.24;40.43;97707.38;5099596;28;20635;-69
2022/07/22 08:27:31;;;;;;;9.67;8.67;;;;;;;30.29;40.15;97712.78;5104916;28;20181;-71
2022/07/22 08:29:57;;;;;;;10.83;9.10;;;;;;;30.43;39.90;97711.19;5097892;28;20207;-72
2022/07/22 08:32:23;;;;;;;10.27;8.20;;;;;;;30.53;40.18;97709.53;5087227;28;20443;-69
2022/07/22 08:34:48;;;;;;;11.67;9.13;;;;;;;30.68;39.57;97704.16;5097840;28;20217;-70
2022/07/22 08:37:14;;;;;;;10.47;8.63;;;;;;;30.79;39.06;97708.50;5105974;28;20178;-71
2022/07/22 08:39:39;;;;;;;10.60;9.30;;;;;;;30.92;38.65;97696.31;5103454;28;20180;-71
2022/07/22 08:42:05;;;;;;;14.77;8.13;;;;;;;31.01;38.32;97688.41;5111901;28;20189;-71
2022/07/22 08:44:32;;;;;;;9.57;8.03;;;;;;;31.12;38.54;97701.94;5112419;28;20287;-71
2022/07/22 08:46:59;;;;;;;10.00;8.93;;;;;;;31.23;38.67;97700.88;5111584;27;20180;-73
2022/07/22 08:49:24;;;;;;;11.30;9.13;;;;;;;31.32;38.50;97691.09;5108464;27;20438;-71
2022/07/22 08:51:50;;;;;;;12.10;8.43;;;;;;;31.37;38.14;97696.50;5110642;28;20910;-70
2022/07/22 08:54:15;;;;;;;9.27;7.70;;;;;;;31.47;37.86;97682.09;5088979;28;20220;-70
2022/07/22 08:56:42;;;;;;;13.13;9.13;;;;;;;31.46;37.00;97677.75;5102129;28;20211;-71
2022/07/22 08:59:08;;;;;;;16.60;8.60;;;;;;;31.53;37.87;97683.69;5110094;28;20227;-70
2022/07/22 09:01:33;;;;;;;10.90;8.20;;;;;;;31.68;37.67;97679.31;5101556;28;20415;-69
2022/07/22 09:03:59;;;;;;;11.43;9.17;;;;;;;31.76;37.40;97675.22;5112208;28;20278;-71
2022/07/22 09:06:26;;;;;;;15.60;14.00;;;;;;;31.91;37.35;97683.25;5102151;28;20268;-71
2022/07/22 09:08:59;;;;;;;16.20;13.80;;;;;;;31.94;36.50;97671.84;5107131;28;20566;-71
2022/07/22 09:11:28;;;;;;;13.70;7.97;;;;;;;32.07;36.29;97680.44;5083703;28;20940;-71
2022/07/22 09:13:55;;;;;;;14.13;7.60;;;;;;;32.09;36.57;97673.63;5108415;28;20474;-71
2022/07/22 09:16:40;;;;;;;9.73;8.03;;;;;;;32.13;36.38;97676.63;5103017;28;20506;-70
2022/07/22 09:19:06;;;;;;;8.60;7.67;;;;;;;32.18;35.98;97676.56;5104053;28;20466;-70
2022/07/22 09:21:31;;;;;;;8.03;6.43;;;;;;;32.28;35.13;97675.72;5116208;27;20445;-70
2022/07/22 09:23:57;;;;;;;12.93;7.77;;;;;;;32.41;35.80;97680.50;5092097;28;20201;-72
2022/07/22 09:26:30;;;;;;;12.60;6.77;;;;;;;32.57;35.92;97680.38;5087811;28;20185;-72
2022/07/22 09:28:57;;;;;;;7.30;6.60;;;;;;;32.77;35.14;97684.78;5102029;28;20188;-70
2022/07/22 09:31:27;;;;;;;16.53;8.23;;;;;;;32.96;34.69;97681.38;5106543;28;20536;-70
2022/07/22 09:33:53;;;;;;;7.30;6.60;;;;;;;33.06;35.40;97683.97;5103551;28;20456;-70
2022/07/22 09:36:19;;;;;;;10.50;7.30;;;;;;;33.24;34.59;97675.09;5113337;27;20426;-72
2022/07/22 09:38:45;;;;;;;12.53;6.50;;;;;;;33.17;33.41;97669.19;5101764;28;20830;-71
2022/07/22 09:41:10;;;;;;;10.60;6.60;;;;;;;33.33;32.78;97671.72;5107108;28;20904;-70
2022/07/22 09:43:36;;;;;;;8.73;6.13;;;;;;;33.41;32.41;97662.16;5113310;27;20200;-69
2022/07/22 09:46:03;;;;;;;8.77;6.37;;;;;;;33.57;32.62;97663.59;5101014;28;20182;-70
2022/07/22 09:48:29;;;;;;;9.87;6.60;;;;;;;33.65;32.54;97653.94;5091021;28;20419;-70
2022/07/22 09:50:56;;;;;;;7.63;6.27;;;;;;;33.77;33.16;97658.97;5103090;28;20479;-70
2022/07/22 09:53:24;;;;;;;7.33;6.17;;;;;;;33.93;32.47;97651.41;5103601;28;20272;-70
2022/07/22 09:55:49;;;;;;;8.23;5.90;;;;;;;33.97;31.56;97644.31;5103605;28;20552;-69
2022/07/22 09:58:15;;;;;;;11.93;6.63;;;;;;;33.96;31.98;97642.69;5095683;28;20993;-70
2022/07/22 10:00:41;;;;;;;8.93;6.10;;;;;;;34.09;31.71;97641.94;5108756;28;20639;-70
2022/07/22 10:03:10;;;;;;;6.00;5.20;;;;;;;34.10;31.03;97635.41;5081569;28;20178;-69
2022/07/22 10:05:38;;;;;;;6.93;6.20;;;;;;;34.21;31.29;97643.38;5105058;28;20435;-69
2022/07/22 10:08:05;;;;;;;15.10;6.23;;;;;;;34.17;30.65;97634.19;5101172;28;20427;-70
2022/07/22 10:10:32;;;;;;;6.10;5.50;;;;;;;34.18;30.20;97627.66;5104901;28;20495;-70
2022/07/22 10:12:59;;;;;;;9.63;5.77;;;;;;;34.12;30.60;97618.78;5113172;28;20422;-69
2022/07/22 10:15:26;;;;;;;6.10;5.50;;;;;;;34.15;30.39;97627.16;5106710;28;20477;-69
2022/07/22 10:17:53;;;;;;;8.57;5.90;;;;;;;34.29;31.57;97621.75;5102003;28;20498;-70
2022/07/22 10:20:22;;;;;;;8.63;6.23;;;;;;;34.48;31.85;97620.13;5093790;28;20480;-69
2022/07/22 10:22:49;;;;;;;8.07;6.30;;;;;;;34.63;30.97;97611.69;5095028;28;21292;-70
2022/07/22 10:25:15;;;;;;;6.97;6.23;;;;;;;34.62;31.07;97618.25;5083558;28;20860;-69
2022/07/22 10:27:51;;;;;;;6.27;5.67;;;;;;;34.79;31.22;97617.66;5114005;28;20846;-69
2022/07/22 10:30:22;;;;;;;11.37;5.70;;;;;;;34.80;30.35;97613.81;5111179;28;20773;-70
2022/07/22 10:33:19;;;;;;;6.10;5.57;;;;;;;34.95;30.15;97611.94;5095711;28;20525;-70
2022/07/22 10:35:57;;;;;;;8.00;5.23;;;;;;;35.10;29.10;97610.81;5097914;28;20431;-70
2022/07/22 10:38:24;;;;;;;5.70;5.20;;;;;;;35.21;29.45;97607.59;5100495;28;20488;-70
2022/07/22 10:40:52;;;;;;;6.60;6.00;;;;;;;35.41;29.98;97597.34;5096339;28;20423;-69
2022/07/22 10:43:20;;;;;;;10.73;6.03;;;;;;;35.37;29.56;97605.34;5105207;28;20942;-69
2022/07/22 10:45:47;;;;;;;9.20;5.90;;;;;;;35.37;29.08;97594.44;5108369;28;20447;-69
2022/07/22 10:48:15;;;;;;;7.17;6.47;;;;;;;34.40;30.00;97588.94;5094253;27;20425;-69
2022/07/22 10:50:43;;;;;;;8.87;7.60;;;;;;;34.73;30.25;97597.06;5107955;28;20435;-69
2022/07/22 10:53:11;;;;;;;8.67;6.10;;;;;;;35.06;30.21;97595.09;5105151;28;20565;-68
2022/07/22 10:55:39;;;;;;;8.23;6.90;;;;;;;35.15;30.17;97581.56;5100222;28;21019;-68
2022/07/22 10:58:34;;;;;;;6.23;5.60;;;;;;;35.34;30.32;97586.88;5105601;28;20466;-69
2022/07/22 11:01:04;;;;;;;6.60;5.97;;;;;;;35.46;29.39;97586.41;5015972;28;20450;-68
2022/07/22 11:03:31;;;;;;;9.93;6.60;;;;;;;35.54;28.82;97592.22;5102105;28;20422;-71
2022/07/22 11:05:59;;;;;;;7.90;7.10;;;;;;;35.68;28.74;97579.34;5107166;28;20505;-71
2022/07/22 11:08:25;;;;;;;6.37;5.70;;;;;;;35.73;28.55;97578.41;5105783;28;20418;-69
2022/07/22 11:10:50;;;;;;;9.20;5.93;;;;;;;35.29;27.88;97578.81;5098841;28;20922;-70
2022/07/22 11:13:35;;;;;;;5.53;5.03;;;;;;;35.49;27.59;97563.16;5104237;27;20223;-69
2022/07/22 11:16:22;;;;;;;7.70;5.50;;;;;;;35.78;27.60;97567.41;5110579;28;20206;-71
2022/07/22 11:18:59;;;;;;;7.00;4.90;;;;;;;35.48;27.97;97569.72;5109636;28;20457;-71
2022/07/22 11:21:27;;;;;;;5.50;5.00;;;;;;;35.37;26.36;97569.09;5110253;28;20458;-70
2022/07/22 11:23:55;;;;;;;6.17;5.20;;;;;;;35.36;26.53;97571.03;5099779;28;20426;-71
2022/07/22 11:26:39;;;;;;;6.00;4.73;;;;;;;35.22;27.08;97570.25;5105737;28;20430;-70